Terminal Aerodrome Forecast
Issued by NWS Twin Cities, MN

Home | Current Version | Previous Version | Graphics & Text | Print | Product List | Glossary On
Versions: 1 2 3 4 5 6 7 8 9 10 11 12 13 14 15 16
941
FTUS43 KMPX 150520
TAFEAU
TAF
KEAU 150520Z 1506/1606 28005KT 6SM -SHSN OVC020
     FM151200 28004KT P6SM BKN030
     FM152100 24004KT 6SM -SHSN OVC030
     FM160000 VRB03KT 6SM -SHSN BKN025=

USA.gov is the U.S. government's official web portal to all federal, state and local government web resources and services.